createdAt,value
2018-09-04T00:00:08.093Z,13.40
2018-09-04T00:02:38.643Z,15.17
2018-09-04T00:05:08.484Z,13.93
2018-09-04T00:07:39.025Z,14.63
2018-09-04T00:10:09.834Z,14.17
2018-09-04T00:12:40.493Z,13.47
2018-09-04T00:15:11.153Z,11.97
2018-09-04T00:17:41.707Z,16.17
2018-09-04T00:20:11.556Z,14.03
2018-09-04T00:22:42.117Z,14.47
2018-09-04T00:25:12.533Z,13.57
2018-09-04T00:27:43.042Z,14.13
2018-09-04T00:30:13.454Z,13.93
2018-09-04T00:32:44.114Z,13.33
2018-09-04T00:35:14.524Z,16.13
2018-09-04T00:37:45.589Z,15.90
2018-09-04T00:40:16.217Z,14.00
2018-09-04T00:42:46.841Z,13.87
2018-09-04T00:45:17.643Z,13.57
2018-09-04T00:47:48.326Z,13.47
2018-09-04T00:50:18.962Z,14.57
2018-09-04T00:52:49.488Z,13.40
2018-09-04T00:55:19.962Z,14.00
2018-09-04T00:57:50.628Z,14.30
2018-09-04T01:00:24.945Z,14.57
2018-09-04T01:02:55.928Z,13.97
2018-09-04T01:05:26.501Z,14.73
2018-09-04T01:07:57.547Z,12.60
2018-09-04T01:10:28.106Z,14.27
2018-09-04T01:12:58.655Z,14.40
2018-09-04T01:15:28.511Z,13.13
2018-09-04T01:17:58.891Z,15.10
2018-09-04T01:20:28.750Z,15.93
2018-09-04T01:22:59.297Z,12.83
2018-09-04T01:25:29.901Z,15.77
2018-09-04T01:28:00.470Z,16.30
2018-09-04T01:30:31.111Z,14.93
2018-09-04T01:33:01.529Z,13.27
2018-09-04T01:35:32.128Z,14.73
2018-09-04T01:38:02.816Z,14.10
2018-09-04T01:40:33.179Z,14.07
2018-09-04T01:43:03.746Z,12.47
2018-09-04T01:45:34.156Z,13.70
2018-09-04T01:48:04.742Z,14.77
2018-09-04T01:50:35.159Z,14.10
2018-09-04T01:53:05.671Z,13.97
2018-09-04T01:55:36.067Z,13.73
2018-09-04T01:58:06.716Z,15.00
2018-09-04T02:00:37.247Z,17.13
2018-09-04T02:03:07.888Z,16.77
2018-09-04T02:05:37.738Z,16.40
2018-09-04T02:08:08.196Z,16.07
2018-09-04T02:10:38.776Z,17.27
2018-09-04T02:13:09.354Z,15.20
2018-09-04T02:15:40.246Z,17.63
2018-09-04T02:18:10.501Z,16.90
2018-09-04T02:20:41.159Z,17.67
2018-09-04T02:23:11.684Z,16.77
2018-09-04T02:25:42.248Z,16.77
2018-09-04T02:28:12.047Z,17.87
2018-09-04T02:30:41.814Z,17.37
2018-09-04T02:33:12.360Z,17.00
2018-09-04T02:35:42.886Z,17.10
2018-09-04T02:38:13.567Z,18.67
2018-09-04T02:40:44.050Z,17.67
2018-09-04T02:43:14.606Z,15.83
2018-09-04T02:45:45.110Z,17.07
2018-09-04T02:48:15.670Z,22.13
2018-09-04T02:50:45.522Z,20.33
2018-09-04T02:53:16.007Z,21.87
2018-09-04T02:55:46.605Z,20.57
2018-09-04T02:58:16.510Z,23.17
2018-09-04T03:00:46.890Z,25.53
2018-09-04T03:03:17.510Z,25.27
2018-09-04T03:05:47.296Z,24.47
2018-09-04T03:08:17.784Z,23.03
2018-09-04T03:10:48.366Z,24.40
2018-09-04T03:13:18.714Z,24.13
2018-09-04T03:15:49.606Z,23.90
2018-09-04T03:18:20.030Z,24.50
2018-09-04T03:20:51.082Z,22.80
2018-09-04T03:23:21.738Z,21.37
2018-09-04T03:25:51.965Z,22.97
2018-09-04T03:28:22.415Z,24.90
2018-09-04T03:30:53.121Z,24.00
2018-09-04T03:33:23.752Z,24.53
2018-09-04T03:35:53.588Z,24.10
2018-09-04T03:38:24.023Z,24.97
2018-09-04T03:40:54.557Z,25.37
2018-09-04T03:43:24.998Z,26.07
2018-09-04T03:45:55.573Z,22.33
2018-09-04T03:48:26.160Z,20.97
2018-09-04T03:50:56.814Z,22.73
2018-09-04T03:53:27.384Z,23.80
2018-09-04T03:55:57.858Z,25.43
2018-09-04T03:58:28.169Z,25.37
2018-09-04T04:00:58.637Z,24.40
2018-09-04T04:03:29.034Z,23.10
2018-09-04T04:05:59.448Z,22.43
2018-09-04T04:08:30.010Z,24.90
2018-09-04T04:11:00.550Z,20.67
2018-09-04T04:13:31.076Z,21.27
2018-09-04T04:16:01.665Z,24.40
2018-09-04T04:18:32.266Z,23.50
2018-09-04T04:21:02.620Z,20.30
2018-09-04T04:23:33.178Z,21.97
2018-09-04T04:26:04.034Z,22.53
2018-09-04T04:28:34.269Z,23.43
2018-09-04T04:31:04.044Z,23.10
2018-09-04T04:33:34.819Z,21.67
2018-09-04T04:36:05.422Z,21.80
2018-09-04T04:38:35.937Z,23.57
2018-09-04T04:41:06.706Z,23.53
2018-09-04T04:43:36.601Z,21.07
2018-09-04T04:46:07.125Z,21.03
2018-09-04T04:48:37.667Z,22.53
2018-09-04T04:51:08.263Z,21.03
2018-09-04T04:53:38.755Z,23.17
2018-09-04T04:56:09.047Z,22.87
2018-09-04T04:58:39.371Z,20.17
2018-09-04T05:01:09.787Z,20.83
2018-09-04T05:03:40.355Z,21.97
2018-09-04T05:06:10.949Z,19.77
2018-09-04T05:08:41.498Z,18.37
2018-09-04T05:11:11.527Z,20.90
2018-09-04T05:13:41.656Z,18.10
2018-09-04T05:16:11.798Z,18.23
2018-09-04T05:18:42.120Z,16.90
2018-09-04T05:21:12.911Z,21.20
2018-09-04T05:23:43.019Z,20.30
2018-09-04T05:26:13.192Z,20.87
2018-09-04T05:28:43.433Z,17.97
2018-09-04T05:31:13.694Z,21.30
2018-09-04T05:33:44.946Z,20.07
2018-09-04T05:36:15.929Z,21.20
2018-09-04T05:38:46.166Z,19.27
2018-09-04T05:41:16.406Z,21.53
2018-09-04T05:43:52.690Z,19.33
2018-09-04T05:46:36.740Z,22.10
2018-09-04T05:49:07.173Z,18.90
2018-09-04T05:51:37.756Z,17.63
2018-09-04T05:54:08.237Z,18.63
2018-09-04T05:56:38.908Z,19.13
2018-09-04T05:59:09.250Z,21.57
2018-09-04T06:01:39.665Z,20.83
2018-09-04T06:04:09.953Z,19.53
2018-09-04T06:06:40.490Z,20.50
2018-09-04T06:09:10.775Z,19.90
2018-09-04T06:11:40.987Z,21.60
2018-09-04T06:14:10.677Z,18.47
2018-09-04T06:16:40.882Z,18.37
2018-09-04T06:19:11.458Z,16.63
2018-09-04T06:21:41.735Z,18.57
2018-09-04T06:24:12.065Z,16.40
2018-09-04T06:26:42.905Z,19.93
2018-09-04T06:29:13.667Z,16.50
2018-09-04T06:31:44.293Z,19.77
2018-09-04T06:34:14.939Z,17.50
2018-09-04T06:36:45.910Z,18.33
2018-09-04T06:39:16.527Z,16.47
2018-09-04T06:41:47.071Z,18.27
2018-09-04T06:44:17.461Z,15.77
2018-09-04T06:46:47.949Z,16.73
2018-09-04T06:49:18.582Z,16.13
2018-09-04T06:51:49.176Z,15.37
2018-09-04T06:54:19.764Z,15.90
2018-09-04T06:56:49.973Z,15.83
2018-09-04T06:59:20.596Z,14.60
2018-09-04T07:01:50.765Z,18.60
2018-09-04T07:04:20.606Z,16.93
2018-09-04T07:06:51.135Z,16.17
2018-09-04T07:09:21.733Z,16.73
2018-09-04T07:11:52.242Z,18.30
2018-09-04T07:14:22.824Z,17.10
2018-09-04T07:16:53.220Z,15.90
2018-09-04T07:19:23.640Z,15.77
2018-09-04T07:21:53.473Z,15.77
2018-09-04T07:24:23.886Z,14.33
2018-09-04T07:26:54.510Z,15.23
2018-09-04T07:29:25.096Z,17.50
2018-09-04T07:31:55.708Z,15.53
2018-09-04T07:34:26.235Z,15.33
2018-09-04T07:36:56.879Z,14.43
2018-09-04T07:39:27.474Z,16.57
2018-09-04T07:41:58.064Z,15.90
2018-09-04T07:44:27.908Z,15.33
2018-09-04T07:46:58.443Z,14.03
2018-09-04T07:49:28.937Z,13.93
2018-09-04T07:51:59.423Z,13.50
2018-09-04T07:54:29.973Z,15.17
2018-09-04T07:57:00.513Z,14.03
2018-09-04T07:59:31.010Z,13.73
2018-09-04T08:02:01.421Z,12.70
2018-09-04T08:04:32.018Z,12.03
2018-09-04T08:07:02.683Z,12.17
2018-09-04T08:09:33.408Z,12.83
2018-09-04T08:12:03.630Z,11.67
2018-09-04T08:14:34.346Z,12.77
2018-09-04T08:17:04.930Z,12.40
2018-09-04T08:19:35.551Z,11.67
2018-09-04T08:22:06.987Z,11.03
2018-09-04T08:24:37.445Z,11.13
2018-09-04T08:27:07.968Z,11.63
2018-09-04T08:29:38.502Z,12.57
2018-09-04T08:32:09.076Z,10.50
2018-09-04T08:34:38.853Z,10.27
2018-09-04T08:37:09.262Z,9.73
2018-09-04T08:39:40.051Z,12.77
2018-09-04T08:42:09.997Z,9.67
2018-09-04T08:44:40.467Z,9.67
2018-09-04T08:47:11.094Z,10.43
2018-09-04T08:49:41.654Z,11.10
2018-09-04T08:52:11.502Z,10.67
2018-09-04T08:54:42.232Z,10.30
2018-09-04T08:57:12.892Z,9.60
2018-09-04T08:59:43.796Z,9.17
2018-09-04T09:02:13.970Z,9.73
2018-09-04T09:04:44.626Z,9.10
2018-09-04T09:07:15.038Z,8.97
2018-09-04T09:09:44.805Z,9.80
2018-09-04T09:12:15.065Z,8.53
2018-09-04T09:14:45.686Z,13.87
2018-09-04T09:17:16.155Z,9.87
2018-09-04T09:22:39.769Z,10.83
2018-09-04T09:25:10.253Z,9.47
2018-09-04T09:27:40.077Z,9.93
2018-09-04T10:02:04.387Z,8.73
2018-09-04T10:04:34.965Z,9.53
2018-09-04T10:07:05.591Z,6.53
2018-09-04T10:09:35.987Z,8.27
2018-09-04T10:12:07.102Z,9.43
2018-09-04T10:14:37.761Z,6.40
2018-09-04T10:17:08.913Z,7.40
2018-09-04T10:19:39.365Z,6.83
2018-09-04T10:22:09.812Z,7.10
2018-09-04T10:24:40.205Z,7.60
2018-09-04T10:27:10.595Z,10.03
2018-09-04T10:29:40.933Z,6.93
2018-09-04T10:32:11.476Z,7.47
2018-09-04T10:34:41.947Z,6.87
2018-09-04T10:37:12.495Z,5.50
2018-09-04T10:39:48.327Z,7.43
2018-09-04T10:42:23.737Z,6.27
2018-09-04T10:44:54.177Z,6.23
2018-09-04T10:47:24.666Z,6.63
2018-09-04T10:49:55.250Z,6.43
2018-09-04T10:52:25.618Z,5.73
2018-09-04T10:54:56.091Z,6.87
2018-09-04T10:57:26.236Z,8.93
2018-09-04T10:59:56.343Z,7.30
2018-09-04T11:02:26.090Z,6.60
2018-09-04T13:52:26.306Z,6.33
2018-09-04T13:54:56.875Z,5.03
2018-09-04T13:57:27.990Z,4.57
2018-09-04T13:59:58.510Z,5.57
2018-09-04T14:02:29.083Z,4.63
2018-09-04T14:04:59.157Z,6.50
2018-09-04T14:07:29.701Z,4.07
2018-09-04T14:10:00.152Z,4.50
2018-09-04T14:12:30.702Z,3.97
2018-09-04T14:15:00.872Z,5.13
2018-09-04T14:17:31.018Z,4.53
2018-09-04T14:20:01.446Z,4.07
2018-09-04T14:22:31.998Z,5.13
2018-09-04T14:25:02.157Z,6.30
2018-09-04T14:27:32.569Z,5.13
2018-09-04T14:30:16.908Z,4.57
2018-09-04T14:32:33.650Z,4.77
2018-09-04T14:35:04.081Z,3.63
2018-09-04T14:37:34.445Z,3.73
2018-09-04T14:40:04.786Z,4.87
2018-09-04T14:42:34.923Z,4.13
2018-09-04T14:45:05.169Z,4.80
2018-09-04T14:47:35.695Z,4.40
2018-09-04T14:50:06.286Z,3.80
2018-09-04T14:52:36.788Z,5.10
2018-09-04T14:55:07.272Z,4.33
2018-09-04T14:57:37.682Z,4.10
2018-09-04T15:00:08.386Z,5.40
2018-09-04T15:02:39.045Z,6.40
2018-09-04T15:05:09.116Z,5.73
2018-09-04T15:07:39.469Z,4.37
2018-09-04T15:10:09.896Z,5.20
2018-09-04T15:12:40.398Z,4.07
2018-09-04T15:15:10.833Z,8.87
2018-09-04T15:17:40.634Z,5.27
2018-09-04T15:20:10.945Z,4.40
2018-09-04T15:22:41.755Z,4.03
2018-09-04T15:25:12.120Z,4.63
2018-09-04T15:27:42.607Z,4.57
2018-09-04T15:30:12.937Z,3.87
2018-09-04T15:32:43.373Z,4.97
2018-09-04T15:35:13.826Z,3.90
2018-09-04T15:37:44.627Z,4.93
2018-09-04T15:40:15.047Z,3.83
2018-09-04T15:42:45.568Z,5.53
2018-09-04T15:45:15.898Z,5.90
2018-09-04T15:47:46.262Z,3.90
2018-09-04T15:50:16.647Z,9.50
2018-09-04T15:52:47.096Z,7.87
2018-09-04T15:55:17.535Z,4.30
2018-09-04T15:57:48.074Z,5.53
2018-09-04T16:00:18.532Z,3.70
2018-09-04T16:02:48.949Z,4.60
2018-09-04T16:05:18.557Z,5.77
2018-09-04T16:07:48.922Z,4.23
2018-09-04T16:10:19.344Z,3.53
2018-09-04T16:12:50.653Z,6.10
2018-09-04T16:15:20.502Z,5.40
2018-09-04T16:17:50.928Z,3.67
2018-09-04T16:20:21.251Z,4.93
2018-09-04T16:22:51.623Z,4.83
2018-09-04T16:25:22.042Z,5.20
2018-09-04T16:27:52.527Z,6.17
2018-09-04T16:30:22.924Z,4.13
2018-09-04T16:32:52.642Z,7.20
2018-09-04T16:35:23.028Z,3.70
2018-09-04T16:37:53.183Z,3.80
2018-09-04T16:40:23.551Z,5.07
2018-09-04T16:42:53.956Z,6.00
2018-09-04T16:45:24.081Z,6.67
2018-09-04T16:47:54.243Z,16.07
2018-09-04T16:50:24.680Z,12.47
2018-09-04T16:52:55.055Z,11.07
2018-09-04T16:55:25.171Z,7.07
2018-09-04T16:57:55.496Z,4.80
2018-09-04T17:00:25.868Z,8.10
2018-09-04T17:02:56.001Z,13.00
2018-09-04T17:05:26.639Z,8.27
2018-09-04T17:07:56.503Z,5.00
2018-09-04T17:10:26.874Z,5.13
2018-09-04T17:12:57.159Z,4.60
2018-09-04T17:15:27.522Z,7.23
2018-09-04T17:17:57.677Z,8.33
2018-09-04T17:23:21.488Z,9.13
2018-09-04T17:25:52.889Z,5.77
2018-09-04T17:28:23.345Z,6.27
2018-09-04T17:30:53.715Z,8.43
2018-09-04T17:33:23.845Z,8.50
2018-09-04T17:35:54.335Z,6.87
2018-09-04T17:38:24.580Z,11.57
2018-09-04T17:40:54.675Z,10.37
2018-09-04T17:43:24.827Z,8.17
2018-09-04T17:45:55.069Z,8.47
2018-09-04T17:48:25.898Z,9.93
2018-09-04T17:50:56.065Z,7.27
2018-09-04T17:55:02.844Z,9.67
2018-09-04T17:57:33.071Z,9.70
2018-09-04T18:00:03.294Z,8.60
2018-09-04T18:02:33.383Z,12.57
2018-09-04T18:05:03.850Z,22.53
2018-09-04T18:07:33.987Z,30.03
2018-09-04T18:10:06.080Z,23.07
2018-09-04T18:12:36.049Z,18.67
2018-09-04T18:15:09.750Z,12.23
2018-09-04T18:17:40.032Z,9.27
2018-09-04T20:07:19.154Z,10.23
2018-09-04T20:09:49.730Z,10.70
2018-09-04T20:12:20.302Z,8.17
2018-09-04T20:14:50.740Z,8.90
2018-09-04T20:17:21.198Z,9.07
2018-09-04T20:19:51.922Z,11.97
2018-09-04T20:22:23.202Z,9.80
2018-09-04T20:24:54.015Z,9.37
2018-09-04T20:27:24.543Z,9.37
2018-09-04T20:29:55.109Z,10.93
2018-09-04T20:32:25.930Z,8.93
2018-09-04T20:34:56.505Z,9.90
2018-09-04T20:37:27.086Z,8.60
2018-09-04T20:39:57.462Z,9.13
2018-09-04T20:42:27.926Z,10.30
2018-09-04T20:44:58.465Z,13.43
2018-09-04T20:47:28.820Z,9.60
2018-09-04T20:49:59.330Z,10.03
2018-09-04T20:52:29.845Z,10.13
2018-09-04T20:55:00.188Z,9.23
2018-09-04T20:57:36.913Z,11.10
2018-09-04T21:00:21.285Z,7.30
2018-09-04T21:03:02.665Z,6.57
2018-09-04T21:05:43.389Z,8.57
2018-09-04T21:08:30.347Z,8.47
2018-09-04T21:11:00.998Z,9.60
2018-09-04T21:13:31.418Z,10.00
2018-09-04T21:16:01.936Z,11.83
2018-09-04T21:18:32.580Z,9.43
2018-09-04T21:21:03.002Z,7.93
2018-09-04T21:23:33.362Z,7.97
2018-09-04T21:26:03.852Z,8.73
2018-09-04T21:28:34.477Z,12.10
2018-09-04T21:31:04.901Z,9.20
2018-09-04T21:33:35.478Z,8.27
2018-09-04T21:36:06.068Z,8.37
2018-09-04T21:38:36.630Z,10.90
2018-09-04T21:41:06.977Z,12.53
2018-09-04T21:43:37.372Z,9.07
2018-09-04T21:46:08.063Z,9.60
2018-09-04T21:48:38.477Z,10.03
2018-09-04T21:51:08.897Z,8.57
2018-09-04T21:53:39.508Z,8.23
2018-09-04T21:56:09.949Z,11.83
2018-09-04T21:58:40.480Z,10.40
2018-09-04T22:01:11.467Z,8.77
2018-09-04T22:03:42.270Z,10.87
2018-09-04T22:06:12.806Z,11.40
2018-09-04T22:08:43.294Z,10.53
2018-09-04T22:11:13.656Z,9.53
2018-09-04T22:13:44.275Z,11.10
2018-09-04T22:16:15.572Z,9.97
2018-09-04T22:18:46.634Z,10.80
2018-09-04T22:21:16.990Z,10.20
2018-09-04T22:23:49.567Z,10.77
2018-09-04T22:26:35.632Z,11.67
2018-09-04T22:29:06.226Z,10.13
2018-09-04T22:31:37.689Z,9.33
2018-09-04T22:34:08.102Z,10.07
2018-09-04T22:36:40.973Z,11.30
2018-09-04T22:39:11.658Z,13.13
2018-09-04T22:41:43.893Z,12.27
2018-09-04T22:44:15.218Z,13.13
2018-09-04T22:46:45.593Z,9.93
2018-09-04T22:49:15.983Z,11.43
2018-09-04T22:51:46.499Z,9.80
2018-09-04T22:54:18.542Z,10.93
2018-09-04T22:56:49.056Z,11.90
2018-09-04T22:59:18.865Z,11.23
2018-09-04T23:01:48.898Z,13.03
2018-09-04T23:04:18.453Z,13.90
2018-09-04T23:06:49.158Z,13.00
2018-09-04T23:09:19.731Z,12.67
2018-09-04T23:11:49.843Z,11.43
2018-09-04T23:14:20.027Z,11.33
2018-09-04T23:16:50.198Z,11.23
2018-09-04T23:19:20.386Z,12.80
2018-09-04T23:21:50.557Z,13.27
2018-09-04T23:24:20.749Z,11.63
2018-09-04T23:26:50.930Z,12.67
2018-09-04T23:29:21.101Z,16.00
2018-09-04T23:31:51.573Z,14.30
2018-09-04T23:34:21.718Z,14.03
2018-09-04T23:36:51.989Z,15.83
2018-09-04T23:39:22.098Z,12.03
2018-09-04T23:41:52.292Z,12.23
2018-09-04T23:44:22.554Z,11.70
2018-09-04T23:46:52.721Z,12.27
2018-09-04T23:49:22.909Z,14.30
2018-09-04T23:51:52.499Z,13.40
2018-09-04T23:54:22.858Z,13.47
2018-09-04T23:56:53.041Z,13.70
2018-09-04T23:59:23.215Z,14.07
